createdAt,value
2023-04-25T05:01:13.952Z,0.50
2023-04-25T05:02:13.973Z,0.50
2023-04-25T05:03:14.093Z,0.50
2023-04-25T05:04:14.231Z,0.50
2023-04-25T05:05:14.009Z,0.50
2023-04-25T05:06:14.038Z,0.50
2023-04-25T05:07:14.077Z,0.34
2023-04-25T05:08:14.095Z,0.34
2023-04-25T05:09:14.193Z,0.34
2023-04-25T05:10:14.225Z,0.34
2023-04-25T05:11:14.256Z,0.34
2023-04-25T05:12:14.268Z,0.34
2023-04-25T05:13:14.233Z,0.34
2023-04-25T05:14:14.278Z,0.34
2023-04-25T05:15:14.261Z,0.34
2023-04-25T05:16:14.260Z,0.34
2023-04-25T05:17:14.277Z,0.34
2023-04-25T05:18:14.310Z,0.34
2023-04-25T05:19:14.327Z,0.34
2023-04-25T05:20:14.336Z,0.34
2023-04-25T05:21:14.378Z,0.34
2023-04-25T05:22:14.424Z,0.34
2023-04-25T05:23:14.467Z,0.34
2023-04-25T05:24:14.546Z,0.34
2023-04-25T05:25:14.607Z,0.37
2023-04-25T05:26:14.858Z,0.42
2023-04-25T05:27:14.731Z,0.49
2023-04-25T05:28:14.795Z,0.50
2023-04-25T05:29:14.862Z,0.50
2023-04-25T05:30:14.930Z,0.50
2023-04-25T05:31:14.972Z,0.51
2023-04-25T05:32:15.170Z,0.50
2023-04-25T05:33:15.116Z,0.51
2023-04-25T05:34:15.122Z,0.47
2023-04-25T05:35:15.167Z,0.47
2023-04-25T05:36:15.116Z,0.50
2023-04-25T05:37:15.180Z,0.49
2023-04-25T05:38:15.181Z,0.52
2023-04-25T05:39:15.219Z,0.53
2023-04-25T05:40:15.301Z,0.54
2023-04-25T05:41:15.284Z,0.51
2023-04-25T05:42:15.329Z,0.44
2023-04-25T05:43:15.325Z,0.51
2023-04-25T05:44:15.369Z,0.50
2023-04-25T05:45:15.394Z,0.50
2023-04-25T05:46:15.463Z,0.56
2023-04-25T05:47:15.533Z,0.59
2023-04-25T05:48:15.656Z,0.69
2023-04-25T05:49:17.564Z,0.64
2023-04-25T05:50:15.629Z,0.69
2023-04-25T05:51:15.604Z,0.73
2023-04-25T05:52:15.602Z,0.73
2023-04-25T05:53:15.625Z,0.72
2023-04-25T05:54:15.568Z,0.81
2023-04-25T05:55:15.599Z,0.74
2023-04-25T05:56:15.587Z,0.54
2023-04-25T05:57:15.578Z,0.55
2023-04-25T05:58:15.555Z,0.51
2023-04-25T05:59:15.606Z,0.56
2023-04-25T06:00:15.531Z,0.52
2023-04-25T06:01:15.519Z,0.62
2023-04-25T06:02:15.592Z,0.85
2023-04-25T06:03:17.785Z,0.80
2023-04-25T06:04:15.613Z,0.80
2023-04-25T06:05:15.667Z,0.77
2023-04-25T06:06:15.512Z,0.78
2023-04-25T06:07:15.472Z,0.79
2023-04-25T06:08:15.476Z,0.81
2023-04-25T06:09:15.456Z,0.96
2023-04-25T06:10:15.495Z,0.99
2023-04-25T06:11:15.475Z,0.97
2023-04-25T06:12:15.420Z,0.98
2023-04-25T06:13:15.440Z,1.04
2023-04-25T06:14:15.451Z,1.01
2023-04-25T06:15:27.221Z,1.05
2023-04-25T06:16:16.464Z,1.06
2023-04-25T06:17:15.426Z,1.07
2023-04-25T06:18:15.399Z,1.08
2023-04-25T06:19:15.373Z,1.09
2023-04-25T06:20:15.418Z,1.20
2023-04-25T06:21:15.386Z,1.20
2023-04-25T06:22:15.370Z,1.26
2023-04-25T06:23:15.360Z,1.28
2023-04-25T06:24:15.355Z,1.24
2023-04-25T06:25:15.362Z,1.31
2023-04-25T06:26:15.344Z,1.32
2023-04-25T06:27:17.076Z,1.26
2023-04-25T06:28:15.339Z,1.33
2023-04-25T06:29:15.355Z,1.28
2023-04-25T06:30:15.326Z,1.36
2023-04-25T06:31:15.373Z,1.24
2023-04-25T06:32:15.305Z,1.26
2023-04-25T06:33:15.344Z,1.24
2023-04-25T06:34:15.374Z,1.19
2023-04-25T06:35:15.420Z,1.28
2023-04-25T06:36:15.452Z,1.22
2023-04-25T06:37:15.504Z,1.31
2023-04-25T06:38:15.579Z,1.32
2023-04-25T06:39:15.639Z,1.28
2023-04-25T06:40:15.712Z,1.27
2023-04-25T06:41:15.686Z,1.29
2023-04-25T06:42:15.722Z,1.34
2023-04-25T06:43:15.800Z,1.30
2023-04-25T06:44:15.802Z,1.28
2023-04-25T06:45:15.836Z,1.23
2023-04-25T06:46:15.923Z,1.30
2023-04-25T06:47:15.871Z,1.32
2023-04-25T06:48:15.899Z,1.28
2023-04-25T06:49:15.909Z,1.25
2023-04-25T06:50:15.929Z,1.22
2023-04-25T06:51:15.947Z,1.22
2023-04-25T06:52:16.049Z,1.23
2023-04-25T06:53:16.025Z,1.18
2023-04-25T06:54:16.015Z,1.20
2023-04-25T06:55:16.058Z,1.28
2023-04-25T06:56:16.054Z,1.33
2023-04-25T06:57:16.076Z,1.28
2023-04-25T06:58:16.077Z,1.19
2023-04-25T06:59:16.065Z,1.20
2023-04-25T07:00:16.256Z,1.25
2023-04-25T07:01:16.117Z,1.34
2023-04-25T07:02:16.191Z,1.22
2023-04-25T07:03:16.236Z,1.20
2023-04-25T07:04:16.265Z,1.21
2023-04-25T07:05:17.492Z,1.19
2023-04-25T07:06:16.103Z,1.24
2023-04-25T07:07:16.071Z,1.24
2023-04-25T07:08:16.085Z,1.20
2023-04-25T07:09:16.053Z,1.26
2023-04-25T07:10:16.070Z,1.21
2023-04-25T07:11:16.059Z,1.27
2023-04-25T07:12:16.057Z,1.25
2023-04-25T07:13:16.046Z,1.34
2023-04-25T07:14:16.067Z,1.33
2023-04-25T07:15:16.031Z,1.29
2023-04-25T07:16:16.034Z,1.33
2023-04-25T07:17:16.025Z,1.33
2023-04-25T07:18:16.004Z,1.32
2023-04-25T07:19:16.034Z,1.35
2023-04-25T07:20:15.991Z,1.27
2023-04-25T07:21:16.013Z,1.24
2023-04-25T07:22:16.009Z,1.26
2023-04-25T07:23:15.982Z,1.25
2023-04-25T07:24:15.996Z,1.20
2023-04-25T07:25:15.936Z,1.25
2023-04-25T07:26:15.964Z,1.31
2023-04-25T07:27:15.944Z,1.19
2023-04-25T07:28:18.063Z,1.21
2023-04-25T07:29:15.939Z,1.22
2023-04-25T07:30:15.923Z,1.17
2023-04-25T07:31:15.899Z,1.13
2023-04-25T07:32:15.990Z,1.22
2023-04-25T07:33:15.996Z,1.23
2023-04-25T07:34:15.900Z,1.20
2023-04-25T07:35:15.909Z,1.28
2023-04-25T07:36:15.933Z,1.21
2023-04-25T07:37:15.871Z,1.25
2023-04-25T07:38:15.871Z,1.26
2023-04-25T07:39:15.890Z,1.22
2023-04-25T07:40:15.854Z,1.21
2023-04-25T07:41:15.880Z,0.75
2023-04-25T07:42:15.842Z,0.43
2023-04-25T07:43:15.846Z,0.53
2023-04-25T07:44:15.890Z,0.47
2023-04-25T07:45:15.806Z,0.60
2023-04-25T07:46:15.893Z,0.50
2023-04-25T07:47:15.818Z,0.58
2023-04-25T07:48:15.822Z,0.68
2023-04-25T07:49:15.820Z,0.74
2023-04-25T07:50:15.776Z,0.73
2023-04-25T07:51:15.784Z,0.83
2023-04-25T07:52:15.995Z,0.83
2023-04-25T07:53:15.739Z,0.87
2023-04-25T07:54:15.746Z,0.88
2023-04-25T07:55:15.753Z,0.83
2023-04-25T07:56:15.754Z,0.82
2023-04-25T07:57:15.748Z,0.86
2023-04-25T07:58:15.724Z,0.53
2023-04-25T07:59:15.723Z,0.49
2023-04-25T08:00:15.712Z,0.50
2023-04-25T08:01:15.706Z,0.60
2023-04-25T08:02:15.815Z,0.82
2023-04-25T08:03:15.953Z,1.30
2023-04-25T08:04:15.876Z,1.39
2023-04-25T08:05:16.231Z,1.89
2023-04-25T08:06:15.891Z,2.28
2023-04-25T08:07:15.653Z,2.29
2023-04-25T08:08:15.633Z,2.69
2023-04-25T08:09:15.697Z,2.67
2023-04-25T08:10:15.681Z,2.61
2023-04-25T08:11:15.635Z,2.81
2023-04-25T08:12:15.668Z,2.83
2023-04-25T08:13:15.659Z,2.87
2023-04-25T08:14:15.645Z,2.94
2023-04-25T08:15:15.635Z,2.53
2023-04-25T08:16:15.691Z,2.87
2023-04-25T08:17:15.627Z,2.99
2023-04-25T08:18:17.604Z,3.15
2023-04-25T08:19:15.595Z,2.76
2023-04-25T08:20:15.637Z,2.72
2023-04-25T08:21:15.660Z,2.48
2023-04-25T08:22:15.638Z,2.63
2023-04-25T08:23:15.689Z,2.88
2023-04-25T08:24:15.705Z,2.93
2023-04-25T08:25:15.740Z,2.15
2023-04-25T08:26:15.750Z,2.76
2023-04-25T08:27:15.800Z,2.82
2023-04-25T08:28:15.833Z,1.71
2023-04-25T08:29:15.826Z,1.65
2023-04-25T08:30:15.841Z,2.04
2023-04-25T08:31:15.911Z,1.56
2023-04-25T08:32:15.893Z,1.20
2023-04-25T08:33:15.995Z,1.03
2023-04-25T08:34:15.992Z,1.22
2023-04-25T08:35:16.028Z,1.67
2023-04-25T08:36:24.511Z,2.06
2023-04-25T08:37:17.290Z,2.07
2023-04-25T08:38:16.066Z,2.12
2023-04-25T08:39:16.062Z,2.22
2023-04-25T08:40:16.033Z,2.53
2023-04-25T08:41:16.050Z,3.06
2023-04-25T08:42:16.035Z,3.31
2023-04-25T08:43:16.060Z,3.55
2023-04-25T08:44:16.030Z,3.89
2023-04-25T08:45:16.018Z,4.23
2023-04-25T08:46:16.040Z,4.58
2023-04-25T08:47:15.977Z,4.79
2023-04-25T08:48:16.001Z,5.17
2023-04-25T08:49:15.991Z,5.19
2023-04-25T08:50:16.072Z,5.51
2023-04-25T08:51:16.106Z,5.76
2023-04-25T08:52:16.151Z,5.66
2023-04-25T08:53:16.180Z,5.76
2023-04-25T08:54:30.642Z,6.08
2023-04-25T08:55:17.168Z,6.09
2023-04-25T08:56:16.191Z,6.15
2023-04-25T08:57:16.216Z,6.21
2023-04-25T08:58:16.165Z,1.90
2023-04-25T08:59:16.197Z,1.08
2023-04-25T09:00:16.142Z,0.84
2023-04-25T09:01:16.217Z,0.78
2023-04-25T09:02:16.278Z,0.81
2023-04-25T09:03:16.399Z,0.76
2023-04-25T09:04:16.286Z,0.67
2023-04-25T09:05:16.349Z,0.66
2023-04-25T09:06:16.119Z,0.63
2023-04-25T09:07:16.114Z,0.60
2023-04-25T09:08:16.109Z,0.66
2023-04-25T09:09:16.084Z,0.59
2023-04-25T09:10:16.155Z,0.56
2023-04-25T09:11:16.118Z,0.51
2023-04-25T09:12:16.081Z,0.74
2023-04-25T09:13:16.105Z,1.12
2023-04-25T09:14:16.127Z,1.26
2023-04-25T09:16:16.111Z,0.53
2023-04-25T09:17:16.069Z,1.24
2023-04-25T09:18:16.119Z,1.41
2023-04-25T09:19:16.132Z,0.94
2023-04-25T09:20:16.073Z,1.15
2023-04-25T09:21:16.073Z,1.64
2023-04-25T09:22:16.141Z,1.81
2023-04-25T09:23:16.044Z,1.91
2023-04-25T09:24:16.006Z,2.22
2023-04-25T09:25:16.062Z,1.92
2023-04-25T09:26:16.036Z,2.26
2023-04-25T09:27:16.025Z,2.45
2023-04-25T09:28:16.042Z,2.31
2023-04-25T09:29:16.011Z,2.56
2023-04-25T09:30:16.028Z,2.82
2023-04-25T09:31:15.960Z,2.97
2023-04-25T09:32:16.224Z,3.16
2023-04-25T09:33:16.028Z,3.43
2023-04-25T09:34:15.993Z,3.45
2023-04-25T09:35:15.946Z,3.91
2023-04-25T09:36:15.952Z,3.86
2023-04-25T09:37:15.985Z,4.12
2023-04-25T09:38:15.953Z,4.73
2023-04-25T09:39:15.926Z,4.88
2023-04-25T09:40:16.010Z,5.06
2023-04-25T09:41:17.903Z,5.24
2023-04-25T09:42:15.909Z,5.65
2023-04-25T09:43:15.873Z,5.70
2023-04-25T09:44:15.920Z,5.66
2023-04-25T09:45:15.885Z,5.78
2023-04-25T09:46:15.897Z,5.92
2023-04-25T09:47:15.866Z,6.28
2023-04-25T09:48:15.894Z,6.36
2023-04-25T09:49:15.962Z,6.71
2023-04-25T09:50:16.000Z,6.52
2023-04-25T09:51:16.056Z,6.96
2023-04-25T09:52:16.088Z,6.87
2023-04-25T09:53:16.139Z,6.86
2023-04-25T09:54:16.164Z,7.00
2023-04-25T09:55:16.183Z,7.22
2023-04-25T09:56:16.209Z,7.04
2023-04-25T09:57:16.320Z,7.12
2023-04-25T09:58:16.289Z,7.06
2023-04-25T09:59:16.332Z,7.36
2023-04-25T10:00:16.462Z,7.31
2023-04-25T10:01:16.478Z,7.19
2023-04-25T10:02:16.434Z,7.19
2023-04-25T10:03:16.603Z,7.36
2023-04-25T10:04:16.583Z,7.26
2023-04-25T10:05:16.759Z,7.23
2023-04-25T10:06:16.540Z,7.27
2023-04-25T10:07:16.540Z,7.52
2023-04-25T10:08:16.551Z,7.62
2023-04-25T10:09:16.555Z,7.64
2023-04-25T10:10:16.612Z,7.52
2023-04-25T10:11:16.612Z,7.89
2023-04-25T10:12:16.656Z,7.94
2023-04-25T10:13:16.600Z,7.72
2023-04-25T10:14:16.650Z,7.22
2023-04-25T10:15:16.683Z,5.70
2023-04-25T10:16:16.744Z,3.08
2023-04-25T10:17:16.726Z,2.15
2023-04-25T10:18:16.815Z,1.78
2023-04-25T10:19:16.881Z,1.47
2023-04-25T10:20:17.011Z,1.53
2023-04-25T10:21:16.930Z,1.64
2023-04-25T10:22:17.001Z,2.41
2023-04-25T10:23:17.037Z,2.09
2023-04-25T10:24:17.041Z,2.43
2023-04-25T10:25:17.108Z,2.62
2023-04-25T10:26:17.179Z,2.79
2023-04-25T10:27:17.199Z,2.84
2023-04-25T10:28:17.243Z,2.97
2023-04-25T10:29:17.309Z,2.75
2023-04-25T10:30:17.650Z,2.43
2023-04-25T10:31:17.477Z,2.04
2023-04-25T10:32:17.507Z,1.79
2023-04-25T10:33:17.532Z,1.58
2023-04-25T10:34:17.558Z,1.46
2023-04-25T10:35:17.558Z,1.45
2023-04-25T10:36:17.622Z,1.56
2023-04-25T10:37:17.759Z,1.38
2023-04-25T10:38:17.727Z,1.51
2023-04-25T10:39:17.768Z,1.64
2023-04-25T10:40:17.788Z,1.66
2023-04-25T10:41:17.816Z,1.57
2023-04-25T10:42:17.853Z,1.61
2023-04-25T10:43:17.875Z,1.89
2023-04-25T10:44:17.914Z,1.62
2023-04-25T10:45:17.963Z,1.52
2023-04-25T10:46:18.056Z,1.33
2023-04-25T10:47:17.997Z,1.39
2023-04-25T10:48:18.101Z,1.39
2023-04-25T10:49:18.092Z,1.48
2023-04-25T10:50:18.097Z,1.47
2023-04-25T10:51:18.134Z,1.40
2023-04-25T10:52:18.143Z,1.28
2023-04-25T10:53:18.177Z,1.27
2023-04-25T10:54:18.220Z,1.33
2023-04-25T10:55:18.251Z,1.58
2023-04-25T10:56:18.258Z,1.78
2023-04-25T10:57:18.262Z,1.95
2023-04-25T10:58:18.280Z,1.99
2023-04-25T10:59:18.291Z,2.34
2023-04-25T11:00:18.317Z,2.72
2023-04-25T11:01:18.361Z,2.37
2023-04-25T11:02:18.588Z,2.21
2023-04-25T11:03:18.535Z,2.51
2023-04-25T11:04:18.709Z,2.90
2023-04-25T11:05:20.935Z,2.74
2023-04-25T11:06:18.510Z,2.95
2023-04-25T11:07:18.498Z,3.00
2023-04-25T11:08:18.477Z,3.17
2023-04-25T11:09:18.493Z,2.99
2023-04-25T11:10:18.456Z,2.93
2023-04-25T11:11:18.474Z,3.02
2023-04-25T11:12:18.526Z,2.53
2023-04-25T11:13:18.445Z,2.88
2023-04-25T11:14:18.455Z,3.05
2023-04-25T11:15:18.418Z,3.32
2023-04-25T11:17:19.458Z,3.37
2023-04-25T11:18:18.453Z,3.31
2023-04-25T11:19:18.420Z,3.10
2023-04-25T11:20:18.386Z,2.98
2023-04-25T11:21:18.376Z,3.11
2023-04-25T11:22:18.373Z,2.20
2023-04-25T11:23:18.424Z,2.50
2023-04-25T11:24:18.356Z,2.50
2023-04-25T11:25:18.364Z,1.86
2023-04-25T11:26:18.360Z,1.15
2023-04-25T11:27:18.379Z,0.97
2023-04-25T11:28:18.428Z,0.71
2023-04-25T11:29:18.453Z,0.66
2023-04-25T11:30:18.409Z,0.85
2023-04-25T11:31:18.470Z,1.08
2023-04-25T11:32:19.446Z,1.19
2023-04-25T11:33:18.496Z,1.15
2023-04-25T11:34:18.460Z,1.20
2023-04-25T11:35:18.469Z,1.09
2023-04-25T11:36:18.413Z,1.03
2023-04-25T11:37:18.445Z,0.93
2023-04-25T11:38:18.413Z,0.91
2023-04-25T11:39:18.462Z,0.88
2023-04-25T11:40:18.510Z,0.96
2023-04-25T11:41:18.568Z,0.95
2023-04-25T11:42:18.523Z,0.96
2023-04-25T11:43:21.398Z,0.97
2023-04-25T11:44:18.501Z,0.93
2023-04-25T11:45:18.484Z,0.88
2023-04-25T11:46:18.505Z,1.18
2023-04-25T11:47:18.485Z,1.18
2023-04-25T11:48:19.164Z,1.09
2023-04-25T11:49:18.464Z,0.95
2023-04-25T11:50:18.441Z,0.92
2023-04-25T11:51:18.430Z,0.88
2023-04-25T11:52:18.429Z,0.93
2023-04-25T11:53:18.433Z,0.98
2023-04-25T11:54:18.463Z,1.08
2023-04-25T11:55:18.432Z,1.17
2023-04-25T11:56:18.433Z,1.21
2023-04-25T11:57:18.430Z,1.19
2023-04-25T11:58:18.398Z,1.47
2023-04-25T11:59:18.436Z,1.43
2023-04-25T12:00:19.274Z,1.51
2023-04-25T12:01:18.361Z,1.60
2023-04-25T12:02:18.433Z,1.49
2023-04-25T12:03:18.486Z,1.98
2023-04-25T12:04:18.668Z,1.83
2023-04-25T12:06:19.391Z,0.81
2023-04-25T12:07:18.359Z,0.99
2023-04-25T12:08:18.318Z,1.02
2023-04-25T12:09:18.317Z,1.10
2023-04-25T12:10:18.355Z,1.53
2023-04-25T12:11:18.333Z,1.82
2023-04-25T12:12:18.306Z,1.99
2023-04-25T12:13:18.377Z,2.01
2023-04-25T12:14:18.299Z,2.05
2023-04-25T12:15:18.306Z,2.11
2023-04-25T12:16:18.337Z,2.06
2023-04-25T12:17:18.259Z,2.50
2023-04-25T12:18:18.310Z,1.92
2023-04-25T12:19:18.291Z,2.10
2023-04-25T12:20:18.261Z,1.91
2023-04-25T12:21:18.239Z,1.94
2023-04-25T12:22:18.244Z,1.56
2023-04-25T12:23:18.236Z,1.36
2023-04-25T12:24:18.187Z,1.51
2023-04-25T12:25:18.235Z,1.04
2023-04-25T12:26:18.230Z,0.78
2023-04-25T12:27:18.211Z,1.19
2023-04-25T12:28:18.219Z,1.19
2023-04-25T12:29:18.195Z,1.14
2023-04-25T12:30:18.171Z,1.23
2023-04-25T12:31:18.175Z,1.44
2023-04-25T12:32:18.241Z,1.25
2023-04-25T12:33:18.210Z,0.82
2023-04-25T12:34:18.180Z,0.87
2023-04-25T12:35:18.151Z,0.81
2023-04-25T12:36:18.172Z,1.06
2023-04-25T12:37:18.150Z,0.95
2023-04-25T12:38:18.139Z,1.22
2023-04-25T12:39:18.088Z,1.38
2023-04-25T12:40:18.096Z,1.23
2023-04-25T12:41:18.116Z,1.53
2023-04-25T12:42:18.118Z,1.28
2023-04-25T12:43:18.114Z,1.40
2023-04-25T12:44:18.119Z,1.62
2023-04-25T12:45:18.292Z,1.57
2023-04-25T12:46:18.243Z,1.60
2023-04-25T12:47:18.278Z,1.71
2023-04-25T12:48:18.305Z,1.64
2023-04-25T12:49:19.383Z,1.70
2023-04-25T12:50:18.437Z,1.55
2023-04-25T12:51:18.479Z,1.51
2023-04-25T12:52:18.517Z,1.10
2023-04-25T12:53:18.569Z,0.50
2023-04-25T12:54:18.608Z,0.38
2023-04-25T12:55:18.578Z,0.47
2023-04-25T12:56:18.982Z,0.65
2023-04-25T12:57:18.584Z,1.18
2023-04-25T12:58:18.638Z,1.46
2023-04-25T12:59:18.590Z,1.27
2023-04-25T13:00:18.608Z,0.35
2023-04-25T13:01:18.657Z,0.42
2023-04-25T13:02:18.825Z,0.54
2023-04-25T13:03:18.876Z,0.46
2023-04-25T13:04:18.897Z,0.41
2023-04-25T13:05:18.774Z,0.50
2023-04-25T13:06:18.790Z,0.98
2023-04-25T13:07:18.804Z,1.72
2023-04-25T13:08:18.828Z,2.05
2023-04-25T13:09:18.825Z,2.18
2023-04-25T13:10:18.862Z,2.30
2023-04-25T13:11:18.907Z,2.53
2023-04-25T13:12:19.000Z,2.40
2023-04-25T13:13:19.017Z,2.42
2023-04-25T13:14:19.027Z,2.56
2023-04-25T13:15:19.102Z,2.69
2023-04-25T13:16:19.144Z,2.70
2023-04-25T13:17:19.217Z,2.69
2023-04-25T13:18:19.137Z,2.77
2023-04-25T13:19:19.130Z,2.69
2023-04-25T13:20:19.108Z,2.84
2023-04-25T13:21:19.113Z,3.24
2023-04-25T13:22:19.149Z,4.04
2023-04-25T13:23:19.160Z,3.95
2023-04-25T13:24:19.161Z,3.79
2023-04-25T13:25:19.219Z,3.51
2023-04-25T13:26:19.209Z,1.17
2023-04-25T13:27:19.211Z,0.86
2023-04-25T13:28:19.223Z,0.72
2023-04-25T13:29:19.306Z,1.55
2023-04-25T13:30:19.326Z,2.25
2023-04-25T13:31:19.428Z,2.45
2023-04-25T13:32:19.451Z,2.53
2023-04-25T13:33:19.392Z,2.19
2023-04-25T13:34:19.383Z,2.43
2023-04-25T13:35:19.372Z,2.54
2023-04-25T13:36:19.426Z,2.64
2023-04-25T13:37:19.358Z,3.08
2023-04-25T13:38:19.399Z,2.97
2023-04-25T13:39:19.428Z,2.98
2023-04-25T13:40:19.509Z,3.45
2023-04-25T13:41:19.539Z,3.37
2023-04-25T13:42:19.640Z,3.46
2023-04-25T13:43:19.621Z,3.56
2023-04-25T13:44:19.680Z,3.78
2023-04-25T13:45:19.757Z,4.60
2023-04-25T13:46:40.910Z,4.21
2023-04-25T13:47:20.818Z,4.21
2023-04-25T13:48:19.830Z,4.03
2023-04-25T13:49:19.774Z,4.08
2023-04-25T13:50:19.769Z,4.45
2023-04-25T13:51:19.795Z,4.50
2023-04-25T13:52:19.748Z,5.09
2023-04-25T13:53:19.714Z,5.51
2023-04-25T13:54:19.744Z,5.85
2023-04-25T13:55:19.710Z,5.94
2023-04-25T13:56:19.843Z,5.97
2023-04-25T13:57:19.688Z,6.15
2023-04-25T13:58:19.777Z,5.45
2023-04-25T13:59:19.830Z,4.28
2023-04-25T14:00:19.841Z,4.42
2023-04-25T14:01:19.934Z,4.98
2023-04-25T14:02:19.951Z,5.07
2023-04-25T14:03:20.046Z,5.78
2023-04-25T14:04:20.064Z,5.78
2023-04-25T14:05:20.050Z,5.87
2023-04-25T14:06:20.080Z,6.21
2023-04-25T14:07:20.116Z,6.60
2023-04-25T14:08:20.159Z,6.99
2023-04-25T14:09:20.204Z,7.73
2023-04-25T14:10:20.210Z,7.91
2023-04-25T14:11:20.236Z,7.72
2023-04-25T14:12:20.309Z,8.30
2023-04-25T14:13:20.295Z,7.96
2023-04-25T14:14:20.349Z,8.12
2023-04-25T14:15:20.343Z,8.52
2023-04-25T14:16:20.431Z,9.19
2023-04-25T14:17:20.425Z,8.90
2023-04-25T14:18:20.417Z,11.06
2023-04-25T14:19:22.128Z,11.82
2023-04-25T14:20:20.470Z,11.86
2023-04-25T14:21:20.448Z,11.64
2023-04-25T14:22:20.488Z,11.93
2023-04-25T14:23:20.469Z,13.57
2023-04-25T14:24:20.515Z,13.90
2023-04-25T14:25:20.493Z,14.03
2023-04-25T14:26:20.480Z,13.94
2023-04-25T14:27:20.465Z,15.02
2023-04-25T14:28:20.484Z,15.56
2023-04-25T14:29:20.470Z,15.78
2023-04-25T14:30:20.496Z,16.26
2023-04-25T14:31:20.523Z,16.99
2023-04-25T14:32:20.475Z,17.93
2023-04-25T14:33:20.467Z,18.38
2023-04-25T14:34:20.474Z,18.70
2023-04-25T14:35:20.473Z,19.62
2023-04-25T14:36:20.509Z,19.55
2023-04-25T14:37:20.546Z,20.37
2023-04-25T14:38:20.460Z,21.68
2023-04-25T14:39:20.486Z,20.60
2023-04-25T14:40:20.500Z,20.51
2023-04-25T14:41:20.515Z,20.94
2023-04-25T14:42:20.591Z,21.09
2023-04-25T14:43:20.618Z,21.32
2023-04-25T14:44:20.694Z,21.98
2023-04-25T14:45:20.733Z,21.33
2023-04-25T14:46:20.845Z,21.04
2023-04-25T14:47:20.901Z,21.46
2023-04-25T14:48:21.076Z,21.83
2023-04-25T14:49:21.000Z,21.94
2023-04-25T14:50:21.044Z,22.66
2023-04-25T14:51:21.109Z,22.68
2023-04-25T14:52:21.268Z,24.31
2023-04-25T14:53:21.228Z,24.02
2023-04-25T14:54:21.262Z,12.72
2023-04-25T14:55:21.366Z,4.46
2023-04-25T14:56:21.370Z,3.22
2023-04-25T14:57:21.359Z,2.93
2023-04-25T14:58:21.385Z,2.56
2023-04-25T14:59:21.421Z,6.06
2023-04-25T15:00:21.417Z,11.85
2023-04-25T15:01:21.582Z,19.34
2023-04-25T15:02:21.456Z,22.26
2023-04-25T15:03:21.585Z,21.39
2023-04-25T15:04:21.532Z,21.01
2023-04-25T15:05:21.450Z,21.68
2023-04-25T15:06:21.459Z,34.12
2023-04-25T15:07:21.443Z,39.53
2023-04-25T15:08:21.441Z,33.51
2023-04-25T15:09:21.825Z,35.35
2023-04-25T15:10:21.462Z,34.82
2023-04-25T15:11:21.450Z,35.77
2023-04-25T15:12:21.512Z,34.87
2023-04-25T15:13:21.439Z,32.25
2023-04-25T15:14:21.437Z,32.95
2023-04-25T15:15:26.496Z,36.68
2023-04-25T15:16:22.443Z,35.60
2023-04-25T15:17:21.465Z,36.88
2023-04-25T15:18:21.435Z,35.90
2023-04-25T15:19:21.398Z,34.23
2023-04-25T15:20:21.422Z,35.18
2023-04-25T15:21:21.355Z,35.32
2023-04-25T15:22:21.377Z,33.38
2023-04-25T15:23:21.402Z,34.26
2023-04-25T15:24:21.382Z,33.77
2023-04-25T15:25:21.430Z,35.25
2023-04-25T15:26:21.325Z,34.30
2023-04-25T15:27:21.371Z,33.12
2023-04-25T15:28:21.356Z,31.59
2023-04-25T15:29:21.361Z,33.39
2023-04-25T15:30:21.320Z,31.64
2023-04-25T15:31:21.334Z,32.75
2023-04-25T15:32:21.365Z,34.14
2023-04-25T15:33:21.322Z,34.10
2023-04-25T15:34:21.304Z,35.31
2023-04-25T15:35:21.280Z,34.66
2023-04-25T15:36:21.279Z,34.13
2023-04-25T15:37:21.267Z,34.05
2023-04-25T15:38:21.266Z,34.91
2023-04-25T15:39:21.237Z,34.80
2023-04-25T15:40:21.260Z,34.47
2023-04-25T15:41:21.246Z,33.58
2023-04-25T15:42:21.253Z,32.62
2023-04-25T15:43:21.209Z,33.11
2023-04-25T15:44:21.213Z,32.59
2023-04-25T15:45:21.200Z,33.19
2023-04-25T15:46:21.319Z,32.26
2023-04-25T15:47:21.192Z,33.78
2023-04-25T15:48:21.205Z,32.52
2023-04-25T15:49:21.171Z,33.15
2023-04-25T15:50:21.160Z,32.35
2023-04-25T15:51:21.154Z,32.51
2023-04-25T15:52:21.133Z,32.97
2023-04-25T15:53:21.164Z,32.49
2023-04-25T15:54:21.171Z,32.29
2023-04-25T15:55:21.157Z,31.47
2023-04-25T15:56:21.148Z,31.59
2023-04-25T15:57:21.169Z,31.80
2023-04-25T15:58:21.122Z,31.88
2023-04-25T15:59:21.078Z,31.30
2023-04-25T16:00:21.088Z,31.46
2023-04-25T16:01:21.109Z,31.14
2023-04-25T16:02:21.105Z,30.00
2023-04-25T16:03:21.169Z,29.30
2023-04-25T16:04:21.223Z,30.35
2023-04-25T16:05:21.105Z,30.17
2023-04-25T16:06:21.069Z,30.14
2023-04-25T16:07:21.076Z,30.35
2023-04-25T16:08:21.074Z,29.29
2023-04-25T16:09:21.087Z,29.46
2023-04-25T16:10:21.096Z,28.81
2023-04-25T16:11:21.053Z,29.25
2023-04-25T16:12:21.050Z,29.06
2023-04-25T16:13:21.073Z,28.62
2023-04-25T16:14:21.044Z,29.32
2023-04-25T16:15:21.039Z,29.07
2023-04-25T16:16:21.089Z,28.30
2023-04-25T16:17:21.026Z,28.30
2023-04-25T16:18:21.091Z,27.86
2023-04-25T16:19:21.060Z,27.80
2023-04-25T16:20:21.052Z,28.00
2023-04-25T16:21:21.047Z,28.19
2023-04-25T16:22:21.042Z,27.84
2023-04-25T16:23:21.055Z,27.54
2023-04-25T16:24:21.036Z,27.58
2023-04-25T16:25:21.057Z,27.21
2023-04-25T16:26:21.036Z,26.71
2023-04-25T16:27:21.072Z,26.96
2023-04-25T16:28:21.052Z,27.12
2023-04-25T16:29:21.089Z,26.74
2023-04-25T16:30:21.053Z,26.25
2023-04-25T16:31:21.152Z,26.38
2023-04-25T16:32:21.050Z,26.67
2023-04-25T16:33:21.111Z,25.88
2023-04-25T16:34:21.040Z,25.90
2023-04-25T16:35:21.077Z,26.62
2023-04-25T16:36:21.053Z,25.13
2023-04-25T16:37:21.048Z,25.20
2023-04-25T16:38:21.055Z,26.02
2023-04-25T16:39:21.058Z,24.88
2023-04-25T16:40:21.050Z,25.96
2023-04-25T16:41:21.063Z,24.90
2023-04-25T16:42:21.102Z,25.10
2023-04-25T16:43:21.074Z,24.81
2023-04-25T16:44:21.062Z,24.96
2023-04-25T16:45:21.056Z,24.03
2023-04-25T16:46:21.099Z,23.58
2023-04-25T16:47:21.101Z,24.12
2023-04-25T16:48:21.062Z,25.02
2023-04-25T16:49:21.060Z,22.99
2023-04-25T16:50:21.028Z,24.03
2023-04-25T16:51:21.033Z,23.24
2023-04-25T16:52:21.100Z,23.74
2023-04-25T16:53:21.043Z,24.01
2023-04-25T16:54:21.068Z,23.36
2023-04-25T16:55:21.069Z,23.37
2023-04-25T16:56:21.074Z,22.38
2023-04-25T16:57:21.156Z,21.53
2023-04-25T16:58:21.096Z,22.00
2023-04-25T16:59:21.073Z,21.91
2023-04-25T17:00:21.109Z,21.75
